Time;durP1;ratioP1;P1;durP2;ratioP2;P2;SDS_P1;SDS_P2;PMS_P1;PMS_P2;Temp;Humidity;BMP_temperature;BMP_pressure;BME280_temperature;BME280_humidity;BME280_pressure;Samples;Min_cycle;Max_cycle;Signal;HPM_P1;HPM_P2
2023/07/03 00:00:19;;;;;;;21.67;10.70;;;17.40;99.90;;;;;;5059701;28;20339;-77
2023/07/03 00:02:49;;;;;;;22.55;10.55;;;17.40;99.90;;;;;;5062686;28;20674;-79
2023/07/03 00:05:17;;;;;;;23.38;10.40;;;17.30;99.90;;;;;;5051653;28;20236;-76
2023/07/03 00:07:47;;;;;;;21.38;10.52;;;17.30;99.90;;;;;;5063932;28;20682;-77
2023/07/03 00:10:15;;;;;;;18.00;9.48;;;17.30;99.90;;;;;;5058306;28;20573;-77
2023/07/03 00:12:43;;;;;;;18.23;9.60;;;17.30;99.90;;;;;;5055913;28;20197;-81
2023/07/03 00:15:11;;;;;;;20.50;10.18;;;17.30;99.90;;;;;;5052718;28;20233;-77
2023/07/03 00:17:44;;;;;;;24.85;10.43;;;17.30;99.90;;;;;;5064458;28;20725;-77
2023/07/03 00:20:14;;;;;;;20.92;9.43;;;17.30;99.90;;;;;;5057954;28;20228;-77
2023/07/03 00:22:42;;;;;;;21.27;10.35;;;17.30;99.90;;;;;;5056089;28;20288;-77
2023/07/03 00:25:10;;;;;;;22.80;10.32;;;17.30;99.90;;;;;;5064828;28;20233;-77
2023/07/03 00:27:38;;;;;;;24.02;10.65;;;17.30;99.90;;;;;;5052592;28;20224;-77
2023/07/03 00:30:07;;;;;;;24.70;10.55;;;17.30;99.90;;;;;;5060879;28;20289;-77
2023/07/03 00:32:35;;;;;;;19.02;10.35;;;17.30;99.90;;;;;;5060623;28;20204;-77
2023/07/03 00:35:06;;;;;;;19.02;10.52;;;17.20;99.90;;;;;;5052633;28;20201;-76
2023/07/03 00:37:34;;;;;;;21.48;10.98;;;17.10;99.90;;;;;;5035715;28;20223;-77
2023/07/03 00:40:02;;;;;;;19.98;9.63;;;17.10;99.90;;;;;;5061933;28;20258;-77
2023/07/03 00:42:30;;;;;;;28.55;9.98;;;17.10;99.90;;;;;;5059736;28;20197;-77
2023/07/03 00:44:58;;;;;;;20.95;10.38;;;17.10;99.90;;;;;;5052565;28;20662;-77
2023/07/03 00:47:26;;;;;;;20.27;10.48;;;17.10;99.90;;;;;;5064792;28;20217;-77
2023/07/03 00:49:54;;;;;;;20.77;10.77;;;17.10;99.90;;;;;;5054755;28;20201;-78
2023/07/03 00:52:23;;;;;;;22.23;9.95;;;17.00;99.90;;;;;;5058488;28;20237;-78
2023/07/03 00:54:53;;;;;;;22.08;11.32;;;17.00;99.90;;;;;;5062913;28;20200;-76
2023/07/03 00:57:23;;;;;;;23.27;10.88;;;17.00;99.90;;;;;;5077667;22;20712;-60
2023/07/03 00:59:51;;;;;;;24.75;10.13;;;17.00;99.90;;;;;;5075954;28;20201;-61
2023/07/03 01:02:20;;;;;;;22.73;10.25;;;16.90;99.90;;;;;;5075815;28;20204;-61
2023/07/03 01:04:51;;;;;;;25.75;10.10;;;16.90;99.90;;;;;;5075200;28;20224;-61
2023/07/03 01:07:22;;;;;;;25.23;10.63;;;16.90;99.90;;;;;;5075354;28;20267;-60
2023/07/03 01:09:54;;;;;;;21.85;10.38;;;16.90;99.90;;;;;;5075106;28;20629;-60
2023/07/03 01:12:22;;;;;;;22.35;10.38;;;16.90;99.90;;;;;;5075595;28;20208;-61
2023/07/03 01:14:50;;;;;;;24.60;10.38;;;17.00;99.90;;;;;;5074984;28;20308;-59
2023/07/03 01:17:18;;;;;;;24.25;10.43;;;17.00;99.90;;;;;;5075169;28;20735;-60
2023/07/03 01:19:47;;;;;;;23.65;9.93;;;17.00;99.90;;;;;;5075239;28;20258;-59
2023/07/03 01:22:17;;;;;;;21.33;10.38;;;17.00;99.90;;;;;;5075046;28;20228;-59
2023/07/03 01:24:48;;;;;;;24.08;11.10;;;17.00;99.90;;;;;;5082779;22;20311;-61
2023/07/03 01:27:17;;;;;;;21.17;10.30;;;17.00;99.90;;;;;;5075170;28;20232;-61
2023/07/03 01:29:45;;;;;;;24.95;10.45;;;17.10;99.90;;;;;;5074570;28;20235;-60
2023/07/03 01:32:14;;;;;;;26.60;11.75;;;17.00;99.90;;;;;;5074711;28;20214;-61
2023/07/03 01:34:45;;;;;;;21.48;9.90;;;17.10;99.90;;;;;;5074487;28;20224;-61
2023/07/03 01:37:13;;;;;;;23.35;10.77;;;17.10;99.90;;;;;;5075080;28;20209;-61
2023/07/03 01:39:41;;;;;;;18.75;10.70;;;17.10;99.90;;;;;;5074608;28;20292;-61
2023/07/03 01:42:11;;;;;;;22.40;10.88;;;17.10;99.90;;;;;;5074836;28;20212;-61
2023/07/03 01:44:39;;;;;;;18.55;10.77;;;17.10;99.90;;;;;;5074446;28;20307;-61
2023/07/03 01:47:08;;;;;;;22.20;10.27;;;17.20;99.90;;;;;;5074669;28;20209;-61
2023/07/03 01:49:36;;;;;;;18.45;9.95;;;17.20;99.90;;;;;;5058631;28;20221;-61
2023/07/03 01:52:09;;;;;;;25.42;10.55;;;17.20;99.90;;;;;;5074850;28;20288;-60
2023/07/03 01:54:41;;;;;;;19.98;10.15;;;17.20;99.90;;;;;;5074153;28;20747;-61
2023/07/03 01:57:10;;;;;;;19.63;10.88;;;17.20;99.90;;;;;;5074500;28;20229;-61
2023/07/03 01:59:40;;;;;;;24.83;9.90;;;17.20;99.90;;;;;;5074364;28;20229;-61
2023/07/03 02:02:10;;;;;;;21.85;10.52;;;17.20;99.90;;;;;;5074344;28;20277;-61
2023/07/03 02:04:40;;;;;;;26.25;10.07;;;17.20;99.90;;;;;;5074173;28;20270;-61
2023/07/03 02:07:09;;;;;;;21.73;9.90;;;17.20;99.90;;;;;;5074145;28;20228;-61
2023/07/03 02:09:39;;;;;;;20.33;10.57;;;17.10;99.90;;;;;;5057868;28;20221;-61
2023/07/03 02:12:09;;;;;;;23.30;10.63;;;17.10;99.90;;;;;;5074117;28;20201;-61
2023/07/03 02:14:39;;;;;;;20.33;9.85;;;17.10;99.90;;;;;;5074025;28;20271;-62
2023/07/03 02:17:07;;;;;;;17.98;10.18;;;17.10;99.90;;;;;;5074087;28;20205;-61
2023/07/03 02:19:35;;;;;;;20.08;10.20;;;17.00;99.90;;;;;;5057726;28;20189;-61
2023/07/03 02:22:04;;;;;;;20.15;10.63;;;17.00;99.90;;;;;;5074114;28;20228;-61
2023/07/03 02:24:31;;;;;;;19.40;10.95;;;17.00;99.90;;;;;;5073682;28;20654;-61
2023/07/03 02:26:59;;;;;;;22.65;10.48;;;17.00;99.90;;;;;;5073759;28;20284;-61
2023/07/03 02:29:27;;;;;;;19.77;9.85;;;16.90;99.90;;;;;;5073660;28;20715;-61
2023/07/03 02:31:57;;;;;;;21.75;10.50;;;16.90;99.90;;;;;;5073853;28;20683;-61
2023/07/03 02:34:24;;;;;;;21.40;10.88;;;16.90;99.90;;;;;;5073715;28;20217;-61
2023/07/03 02:36:53;;;;;;;18.05;10.32;;;16.90;99.90;;;;;;5073098;28;20288;-61
2023/07/03 02:39:21;;;;;;;25.85;9.88;;;16.90;99.90;;;;;;5073449;28;20247;-61
2023/07/03 02:41:49;;;;;;;19.85;10.20;;;16.90;99.90;;;;;;5073939;28;20209;-61
2023/07/03 02:44:17;;;;;;;18.20;9.98;;;16.90;99.90;;;;;;5073538;28;20247;-61
2023/07/03 02:46:46;;;;;;;22.95;10.68;;;16.80;99.90;;;;;;5073601;28;20286;-61
2023/07/03 02:49:16;;;;;;;20.52;10.10;;;16.90;99.90;;;;;;5073451;28;20212;-60
2023/07/03 02:51:44;;;;;;;14.68;9.20;;;16.80;99.90;;;;;;5073431;28;20737;-61
2023/07/03 02:54:12;;;;;;;21.88;9.73;;;16.80;99.90;;;;;;5073533;28;20259;-61
2023/07/03 02:56:40;;;;;;;21.77;9.82;;;16.90;99.90;;;;;;5073099;28;20676;-61
2023/07/03 02:59:07;;;;;;;18.33;10.05;;;16.90;99.90;;;;;;5073450;28;20229;-61
2023/07/03 03:01:36;;;;;;;18.65;10.38;;;16.90;99.90;;;;;;5057018;28;20201;-61
2023/07/03 03:04:04;;;;;;;20.98;10.07;;;16.90;99.90;;;;;;5076238;28;20225;-61
2023/07/03 03:06:33;;;;;;;19.83;10.52;;;16.80;99.90;;;;;;5072771;28;20201;-61
2023/07/03 03:09:01;;;;;;;23.05;10.95;;;16.80;99.90;;;;;;5073125;28;20201;-60
2023/07/03 03:11:29;;;;;;;22.92;9.68;;;16.80;99.90;;;;;;5073234;28;20237;-61
2023/07/03 03:13:57;;;;;;;21.75;10.50;;;16.80;99.90;;;;;;5072950;28;20278;-61
2023/07/03 03:16:25;;;;;;;20.38;10.15;;;16.80;99.90;;;;;;5072963;28;20232;-61
2023/07/03 03:18:53;;;;;;;21.15;10.52;;;16.80;99.90;;;;;;5072243;28;20284;-61
2023/07/03 03:21:21;;;;;;;24.55;11.05;;;16.80;99.90;;;;;;5073119;28;20205;-60
2023/07/03 03:23:50;;;;;;;18.75;9.88;;;16.80;99.90;;;;;;5072765;28;20603;-60
2023/07/03 03:26:18;;;;;;;26.77;9.88;;;16.80;99.90;;;;;;5072716;28;20201;-61
2023/07/03 03:28:46;;;;;;;26.52;10.98;;;16.80;99.90;;;;;;5072759;28;20228;-61
2023/07/03 03:31:14;;;;;;;24.00;10.45;;;16.80;99.90;;;;;;5072656;28;20259;-61
2023/07/03 03:33:42;;;;;;;19.33;10.23;;;16.80;99.90;;;;;;5072208;28;20201;-61
2023/07/03 03:36:10;;;;;;;26.15;10.73;;;16.80;99.90;;;;;;5071251;28;20582;-61
2023/07/03 03:38:38;;;;;;;25.60;10.30;;;16.80;99.90;;;;;;5072461;28;20212;-61
2023/07/03 03:41:07;;;;;;;21.90;10.15;;;16.80;99.90;;;;;;5072745;28;20657;-61
2023/07/03 03:43:35;;;;;;;20.33;10.52;;;16.80;99.90;;;;;;5055949;28;20280;-60
2023/07/03 03:46:03;;;;;;;23.73;10.65;;;16.80;99.90;;;;;;5072093;28;20201;-61
2023/07/03 03:48:31;;;;;;;21.60;10.23;;;16.80;99.90;;;;;;5072390;28;20209;-61
2023/07/03 03:51:00;;;;;;;21.88;9.95;;;16.80;99.90;;;;;;5072108;28;20246;-61
2023/07/03 03:53:28;;;;;;;20.58;10.18;;;16.80;99.90;;;;;;5072150;28;20201;-61
2023/07/03 03:55:56;;;;;;;24.58;9.85;;;16.80;99.90;;;;;;5072552;28;20225;-61
2023/07/03 03:58:25;;;;;;;21.35;10.63;;;16.80;99.90;;;;;;5074447;28;20233;-60
2023/07/03 04:00:53;;;;;;;27.75;10.60;;;16.80;99.90;;;;;;5072033;28;20197;-60
2023/07/03 04:03:21;;;;;;;22.40;10.02;;;16.80;99.90;;;;;;5072074;28;20242;-61
2023/07/03 04:05:49;;;;;;;23.55;10.98;;;16.80;99.90;;;;;;5071792;28;20228;-61
2023/07/03 04:08:17;;;;;;;24.23;10.20;;;16.80;99.90;;;;;;5071911;28;20570;-61
2023/07/03 04:10:45;;;;;;;21.48;9.90;;;16.80;99.90;;;;;;5072034;28;20220;-61
2023/07/03 04:13:13;;;;;;;23.63;10.25;;;16.80;99.90;;;;;;5071787;28;20688;-61
2023/07/03 04:15:51;;;;;;;19.15;9.75;;;16.80;99.90;;;;;;5071659;28;20236;-61
2023/07/03 04:18:20;;;;;;;18.50;9.48;;;16.80;99.90;;;;;;5071727;28;20200;-61
2023/07/03 04:20:48;;;;;;;20.83;9.13;;;16.80;99.90;;;;;;5071993;28;20193;-61
2023/07/03 04:23:16;;;;;;;21.15;10.43;;;16.80;99.90;;;;;;5071844;28;20201;-61
2023/07/03 04:25:44;;;;;;;20.15;8.88;;;16.80;99.90;;;;;;5069641;28;20236;-61
2023/07/03 04:28:13;;;;;;;23.20;10.05;;;16.80;99.90;;;;;;5073382;28;20250;-61
2023/07/03 04:30:41;;;;;;;25.30;9.85;;;16.80;99.90;;;;;;5070686;28;20316;-61
2023/07/03 04:33:10;;;;;;;22.20;9.60;;;16.80;99.90;;;;;;5070351;28;20239;-59
2023/07/03 04:35:38;;;;;;;22.38;10.38;;;16.90;99.90;;;;;;5074139;28;20239;-61
2023/07/03 04:38:06;;;;;;;21.38;9.98;;;16.90;99.90;;;;;;5074232;28;20240;-61
2023/07/03 04:40:34;;;;;;;20.90;10.00;;;16.90;99.90;;;;;;5074988;28;20231;-61
2023/07/03 04:43:02;;;;;;;21.55;9.80;;;16.90;99.90;;;;;;5076552;28;20255;-61
2023/07/03 04:45:31;;;;;;;24.08;10.02;;;16.90;99.90;;;;;;5070387;28;20229;-61
2023/07/03 04:47:59;;;;;;;18.63;9.13;;;16.90;99.90;;;;;;5062766;28;20695;-61
2023/07/03 04:50:29;;;;;;;19.65;8.65;;;17.00;99.90;;;;;;5071260;28;20307;-61
2023/07/03 04:52:57;;;;;;;22.60;8.60;;;17.00;99.90;;;;;;5070936;28;20558;-61
2023/07/03 04:55:26;;;;;;;19.92;8.90;;;17.00;99.90;;;;;;5071447;28;20221;-61
2023/07/03 04:57:54;;;;;;;24.75;9.52;;;17.00;99.90;;;;;;5071572;28;20623;-61
2023/07/03 05:00:22;;;;;;;22.35;8.55;;;17.00;99.90;;;;;;5071542;28;20295;-61
2023/07/03 05:02:51;;;;;;;23.77;8.50;;;17.00;99.90;;;;;;5071231;28;20240;-60
2023/07/03 05:05:19;;;;;;;17.55;8.52;;;17.10;99.90;;;;;;5070810;28;20307;-61
2023/07/03 05:07:49;;;;;;;20.83;8.68;;;17.10;99.90;;;;;;5071626;28;20257;-61
2023/07/03 05:10:17;;;;;;;26.70;9.38;;;17.20;99.90;;;;;;5071331;28;20303;-61
2023/07/03 05:12:45;;;;;;;26.90;8.38;;;17.20;99.90;;;;;;5070900;28;20308;-61
2023/07/03 05:15:14;;;;;;;25.10;8.25;;;17.30;99.90;;;;;;5070592;28;20299;-61
2023/07/03 05:17:42;;;;;;;26.63;8.85;;;17.30;99.90;;;;;;5070919;28;20642;-61
2023/07/03 05:20:16;;;;;;;21.55;8.65;;;17.30;99.90;;;;;;5071041;28;20612;-60
2023/07/03 05:22:44;;;;;;;22.00;7.82;;;17.30;99.90;;;;;;5071465;28;20292;-61
2023/07/03 05:25:14;;;;;;;22.48;8.18;;;17.30;99.90;;;;;;5076088;28;20778;-61
2023/07/03 05:27:41;;;;;;;20.70;7.57;;;17.30;99.90;;;;;;5070740;28;20288;-61
2023/07/03 05:30:10;;;;;;;22.15;7.65;;;17.30;99.90;;;;;;5070741;28;20236;-61
2023/07/03 05:32:38;;;;;;;18.75;7.55;;;17.30;99.90;;;;;;5071332;28;20201;-60
2023/07/03 05:35:07;;;;;;;22.48;7.30;;;17.30;99.90;;;;;;5070598;28;20220;-60
2023/07/03 05:37:36;;;;;;;22.65;7.80;;;17.30;99.90;;;;;;5054838;28;20232;-60
2023/07/03 05:40:07;;;;;;;19.58;7.20;;;17.30;99.90;;;;;;5071020;28;20725;-60
2023/07/03 05:42:37;;;;;;;23.65;8.07;;;17.30;99.90;;;;;;5074680;28;20668;-60
2023/07/03 05:45:06;;;;;;;23.65;8.63;;;17.30;99.90;;;;;;5074260;28;20253;-59
2023/07/03 05:47:35;;;;;;;15.80;7.32;;;17.40;99.90;;;;;;5074819;28;20229;-60
2023/07/03 05:50:03;;;;;;;19.55;8.30;;;17.40;99.90;;;;;;5074419;28;20847;-59
2023/07/03 05:52:33;;;;;;;22.50;8.07;;;17.40;99.90;;;;;;5074379;28;20225;-60
2023/07/03 05:55:01;;;;;;;23.35;7.95;;;17.50;99.90;;;;;;5074125;28;20359;-60
2023/07/03 05:57:29;;;;;;;22.20;7.43;;;17.50;99.90;;;;;;5074440;28;20303;-60
2023/07/03 05:59:59;;;;;;;20.30;7.50;;;17.60;99.90;;;;;;5074597;28;20284;-60
2023/07/03 06:02:27;;;;;;;20.80;8.13;;;17.60;99.90;;;;;;5074545;28;20197;-60
2023/07/03 06:04:55;;;;;;;15.32;7.15;;;17.60;99.90;;;;;;5074121;28;20276;-60
2023/07/03 06:07:23;;;;;;;15.98;7.10;;;17.60;99.90;;;;;;5074453;28;20208;-60
2023/07/03 06:09:51;;;;;;;17.00;7.63;;;17.60;99.90;;;;;;5073989;28;20208;-60
2023/07/03 06:12:20;;;;;;;18.92;6.50;;;17.60;99.90;;;;;;5074445;28;20316;-60
2023/07/03 06:14:47;;;;;;;19.08;7.05;;;17.60;99.90;;;;;;5073894;28;20249;-60
2023/07/03 06:17:17;;;;;;;19.02;6.80;;;17.60;99.90;;;;;;5073873;28;20668;-60
2023/07/03 06:19:45;;;;;;;22.65;6.75;;;17.60;99.90;;;;;;5074048;28;20661;-60
2023/07/03 06:22:13;;;;;;;13.30;5.43;;;17.70;99.90;;;;;;5074046;28;20224;-59
2023/07/03 06:24:40;;;;;;;18.02;5.13;;;17.70;99.90;;;;;;5073686;28;20232;-60
2023/07/03 06:27:08;;;;;;;20.05;5.75;;;17.70;99.90;;;;;;5074073;28;20226;-60
2023/07/03 06:29:36;;;;;;;17.63;5.05;;;17.70;99.90;;;;;;5057458;28;20618;-60
2023/07/03 06:32:05;;;;;;;20.38;5.60;;;17.70;99.90;;;;;;5073832;28;20261;-59
2023/07/03 06:34:35;;;;;;;13.57;5.07;;;17.70;99.90;;;;;;5073431;28;20225;-59
2023/07/03 06:37:05;;;;;;;15.60;4.88;;;17.70;99.90;;;;;;5072581;28;20200;-60
2023/07/03 06:39:33;;;;;;;13.60;4.80;;;17.70;99.90;;;;;;5072357;28;20204;-59
2023/07/03 06:42:02;;;;;;;14.90;4.80;;;17.80;99.90;;;;;;5073176;28;20228;-60
2023/07/03 06:44:30;;;;;;;18.77;5.40;;;17.80;99.90;;;;;;5072724;28;20228;-59
2023/07/03 06:46:58;;;;;;;16.00;4.43;;;17.90;99.90;;;;;;5072967;28;20291;-60
2023/07/03 06:49:26;;;;;;;17.80;5.28;;;17.90;99.90;;;;;;5072672;28;20204;-60
2023/07/03 06:51:55;;;;;;;15.65;4.80;;;17.90;99.90;;;;;;5072896;28;20216;-59
2023/07/03 06:54:23;;;;;;;20.30;5.40;;;18.00;99.90;;;;;;5072841;28;20654;-59
2023/07/03 06:56:51;;;;;;;16.65;4.88;;;18.00;99.90;;;;;;5072651;28;20205;-60
2023/07/03 06:59:18;;;;;;;19.42;5.07;;;18.10;99.90;;;;;;5073081;28;20236;-60
2023/07/03 07:01:46;;;;;;;18.77;4.85;;;18.10;99.90;;;;;;5071657;28;20716;-61
2023/07/03 07:04:15;;;;;;;19.63;5.05;;;18.20;99.90;;;;;;5072837;28;20231;-60
2023/07/03 07:06:43;;;;;;;13.05;4.82;;;18.30;99.90;;;;;;5072490;28;20207;-59
2023/07/03 07:09:12;;;;;;;17.60;4.85;;;18.40;99.90;;;;;;5073143;28;20661;-60
2023/07/03 07:11:40;;;;;;;14.23;4.30;;;18.50;99.90;;;;;;5072896;28;20304;-60
2023/07/03 07:14:08;;;;;;;22.25;4.70;;;18.50;99.90;;;;;;5072777;28;20259;-60
2023/07/03 07:16:37;;;;;;;15.90;4.30;;;18.60;99.90;;;;;;5070898;28;20287;-60
2023/07/03 07:19:06;;;;;;;11.23;3.15;;;18.50;99.90;;;;;;5072258;28;20660;-60
2023/07/03 07:21:35;;;;;;;11.13;3.78;;;18.50;99.90;;;;;;5072372;28;20196;-60
2023/07/03 07:24:04;;;;;;;12.63;3.85;;;18.30;99.90;;;;;;5079180;22;20307;-73
2023/07/03 07:26:34;;;;;;;16.92;4.40;;;18.30;99.90;;;;;;5067697;28;20644;-74
2023/07/03 07:29:02;;;;;;;18.33;4.20;;;18.30;99.90;;;;;;5069634;28;20203;-73
2023/07/03 07:31:31;;;;;;;14.48;3.95;;;18.50;99.90;;;;;;5069398;28;20262;-73
2023/07/03 07:33:58;;;;;;;16.15;3.80;;;18.70;99.90;;;;;;5069565;28;20649;-74
2023/07/03 07:36:27;;;;;;;16.92;3.97;;;18.90;99.90;;;;;;5069231;28;20209;-73
2023/07/03 07:38:55;;;;;;;16.05;3.80;;;19.10;99.90;;;;;;5069665;28;20212;-73
2023/07/03 07:41:24;;;;;;;18.55;4.30;;;19.20;99.90;;;;;;5069838;28;20209;-73
2023/07/03 07:43:54;;;;;;;15.43;4.00;;;19.30;99.90;;;;;;5069861;28;20620;-73
2023/07/03 07:46:25;;;;;;;11.23;3.55;;;19.30;99.90;;;;;;5068993;28;20228;-74
2023/07/03 07:48:53;;;;;;;16.00;3.60;;;19.30;99.90;;;;;;5069938;28;20745;-74
2023/07/03 07:51:21;;;;;;;10.70;3.17;;;19.20;99.90;;;;;;5069374;28;20666;-73
2023/07/03 07:53:48;;;;;;;15.13;3.75;;;19.20;99.90;;;;;;5069217;28;20303;-73
2023/07/03 07:56:16;;;;;;;13.40;3.65;;;19.10;99.90;;;;;;5068487;28;20231;-73
2023/07/03 07:58:44;;;;;;;14.20;4.13;;;19.20;99.90;;;;;;5069190;28;20224;-73
2023/07/03 08:01:14;;;;;;;14.98;3.90;;;19.30;99.90;;;;;;5069133;28;20632;-73
2023/07/03 08:03:43;;;;;;;12.00;3.80;;;19.30;99.90;;;;;;5069347;28;20227;-73
2023/07/03 08:06:11;;;;;;;12.38;3.90;;;19.40;99.90;;;;;;5068385;28;20266;-74
2023/07/03 08:08:39;;;;;;;10.57;3.20;;;19.50;99.90;;;;;;5068795;28;20325;-73
2023/07/03 08:11:08;;;;;;;10.32;3.00;;;19.70;99.90;;;;;;5069277;28;20207;-74
2023/07/03 08:13:36;;;;;;;10.25;3.30;;;19.90;99.90;;;;;;5052605;28;20248;-73
2023/07/03 08:16:05;;;;;;;12.38;3.00;;;20.00;99.90;;;;;;5055593;28;20797;-74
2023/07/03 08:18:34;;;;;;;13.43;3.58;;;20.00;99.90;;;;;;5068820;28;20220;-74
2023/07/03 08:21:02;;;;;;;13.85;2.90;;;20.10;99.90;;;;;;5068850;28;20224;-73
2023/07/03 08:23:31;;;;;;;9.57;3.03;;;20.20;99.90;;;;;;5069081;28;20197;-74
2023/07/03 08:25:59;;;;;;;14.07;2.97;;;20.20;99.90;;;;;;5068101;28;20263;-73
2023/07/03 08:28:27;;;;;;;10.35;2.85;;;20.20;99.90;;;;;;5068549;28;20252;-73
2023/07/03 08:30:57;;;;;;;9.65;2.90;;;20.20;99.90;;;;;;5069236;28;20233;-74
2023/07/03 08:33:25;;;;;;;8.35;2.83;;;20.20;99.90;;;;;;5068509;28;20235;-73
2023/07/03 08:35:55;;;;;;;9.57;3.80;;;20.20;99.90;;;;;;5067598;28;20210;-74
2023/07/03 08:38:25;;;;;;;14.10;3.47;;;20.20;99.90;;;;;;5068710;28;20256;-73
2023/07/03 08:41:00;;;;;;;8.43;3.05;;;20.30;99.90;;;;;;5068707;28;20288;-74
2023/07/03 08:43:30;;;;;;;10.80;3.50;;;20.40;99.90;;;;;;5066052;28;20669;-74
2023/07/03 08:45:58;;;;;;;9.23;3.00;;;20.40;99.90;;;;;;5067196;28;20212;-74
2023/07/03 08:48:27;;;;;;;8.77;2.53;;;20.40;99.90;;;;;;5067571;28;20229;-73
2023/07/03 08:50:58;;;;;;;5.18;2.38;;;20.40;99.90;;;;;;5068697;28;20211;-73
2023/07/03 08:53:28;;;;;;;13.88;3.15;;;20.50;99.90;;;;;;5068491;28;20212;-74
2023/07/03 08:55:58;;;;;;;7.13;2.97;;;20.50;99.90;;;;;;5067720;28;20291;-73
2023/07/03 08:58:26;;;;;;;10.60;2.75;;;20.60;99.90;;;;;;5068534;28;20282;-74
2023/07/03 09:00:59;;;;;;;10.52;3.50;;;20.70;99.90;;;;;;5068699;28;20261;-74
2023/07/03 09:03:31;;;;;;;8.30;2.80;;;20.80;99.90;;;;;;5068318;28;20200;-74
2023/07/03 09:06:07;;;;;;;9.80;3.28;;;20.80;99.90;;;;;;5067373;28;20725;-74
2023/07/03 09:08:39;;;;;;;13.40;3.17;;;20.80;99.90;;;;;;5068117;28;20221;-74
2023/07/03 09:11:07;;;;;;;8.55;2.90;;;20.80;99.90;;;;;;5068064;28;20238;-73
2023/07/03 09:13:40;;;;;;;8.40;2.85;;;20.80;99.90;;;;;;5051846;28;20300;-74
2023/07/03 09:16:09;;;;;;;7.35;2.47;;;20.70;99.90;;;;;;5057361;28;20662;-74
2023/07/03 09:18:39;;;;;;;11.27;3.40;;;20.70;99.90;;;;;;5072337;28;20721;-73
2023/07/03 09:21:08;;;;;;;7.85;2.85;;;20.60;99.90;;;;;;5072461;28;20228;-74
2023/07/03 09:23:38;;;;;;;11.88;3.20;;;20.50;99.90;;;;;;5054825;28;20586;-74
2023/07/03 09:26:09;;;;;;;14.30;3.75;;;20.60;99.90;;;;;;5070622;28;20762;-74
2023/07/03 09:28:38;;;;;;;7.25;3.13;;;20.60;99.90;;;;;;5071955;28;20282;-74
2023/07/03 09:31:06;;;;;;;9.38;3.35;;;20.70;99.90;;;;;;5072368;28;20227;-73
2023/07/03 09:33:34;;;;;;;9.40;3.08;;;20.70;99.90;;;;;;5071737;28;20220;-75
2023/07/03 09:36:03;;;;;;;10.05;3.03;;;20.80;99.90;;;;;;5070599;28;20292;-74
2023/07/03 09:38:35;;;;;;;8.77;2.97;;;20.80;99.90;;;;;;5070418;28;20634;-74
2023/07/03 09:41:04;;;;;;;7.38;2.78;;;20.90;99.90;;;;;;5070231;28;20274;-73
2023/07/03 09:43:32;;;;;;;8.65;2.80;;;21.00;99.90;;;;;;5071518;28;20205;-75
2023/07/03 09:46:04;;;;;;;5.57;2.22;;;21.10;99.90;;;;;;5073531;28;20739;-75
2023/07/03 09:48:33;;;;;;;12.32;2.88;;;21.00;99.90;;;;;;5073797;28;20235;-75
2023/07/03 09:51:00;;;;;;;8.63;2.85;;;20.90;99.90;;;;;;5074293;28;20204;-75
2023/07/03 09:53:39;;;;;;;10.65;2.90;;;20.90;99.90;;;;;;5057639;28;20303;-76
2023/07/03 09:56:13;;;;;;;10.95;3.03;;;20.80;99.90;;;;;;5073239;28;20193;-75
2023/07/03 09:58:44;;;;;;;9.68;2.78;;;20.80;99.90;;;;;;5073060;28;20709;-75
2023/07/03 10:01:16;;;;;;;11.60;2.80;;;20.80;99.90;;;;;;5072126;28;20208;-75
2023/07/03 10:03:47;;;;;;;4.97;2.10;;;20.80;99.90;;;;;;5073238;28;20227;-75
2023/07/03 10:06:16;;;;;;;6.82;2.40;;;20.80;99.90;;;;;;5072258;28;20752;-75
2023/07/03 10:08:50;;;;;;;8.23;3.20;;;20.70;99.90;;;;;;5073074;28;20263;-75
2023/07/03 10:11:42;;;;;;;8.13;3.33;;;20.70;99.90;;;;;;5057816;28;20208;-75
2023/07/03 10:14:12;;;;;;;9.45;3.15;;;20.80;99.90;;;;;;5073118;28;20204;-75
2023/07/03 10:16:39;;;;;;;10.68;3.17;;;20.80;99.90;;;;;;5072788;28;20232;-75
2023/07/03 10:19:08;;;;;;;8.18;3.08;;;20.90;99.90;;;;;;5073362;28;20196;-75
2023/07/03 10:21:36;;;;;;;9.68;3.00;;;21.00;99.90;;;;;;5057120;28;20201;-75
2023/07/03 10:24:06;;;;;;;6.00;3.08;;;21.10;99.90;;;;;;5073026;28;20251;-75
2023/07/03 10:26:39;;;;;;;8.05;2.63;;;21.30;99.90;;;;;;5070399;28;20204;-75
2023/07/03 10:29:10;;;;;;;12.20;3.17;;;21.90;99.90;;;;;;5071852;28;20239;-75
2023/07/03 10:31:40;;;;;;;8.05;3.17;;;22.10;99.90;;;;;;5055914;28;20740;-75
2023/07/03 10:34:13;;;;;;;7.75;2.83;;;22.30;99.90;;;;;;5072473;28;20286;-75
2023/07/03 10:36:41;;;;;;;13.00;3.25;;;22.50;99.90;;;;;;5071554;28;20287;-75
2023/07/03 10:39:12;;;;;;;7.00;3.05;;;22.70;99.90;;;;;;5071861;28;20204;-75
2023/07/03 10:41:43;;;;;;;7.50;2.67;;;22.70;99.90;;;;;;5072000;28;20238;-75
2023/07/03 10:44:13;;;;;;;8.45;2.58;;;22.70;99.90;;;;;;5070635;28;20589;-75
2023/07/03 10:46:43;;;;;;;6.90;2.40;;;22.60;99.90;;;;;;5069659;28;20205;-75
2023/07/03 10:49:15;;;;;;;5.88;3.05;;;22.60;99.90;;;;;;5071509;28;20209;-75
2023/07/03 10:51:47;;;;;;;7.20;2.33;;;22.60;99.90;;;;;;5072069;28;20250;-75
2023/07/03 10:54:18;;;;;;;5.55;2.70;;;22.90;99.90;;;;;;5071444;28;20578;-75
2023/07/03 10:56:47;;;;;;;6.00;2.75;;;23.40;99.90;;;;;;5070588;28;20204;-75
2023/07/03 10:59:19;;;;;;;6.07;2.85;;;23.70;99.90;;;;;;5070890;28;20246;-75
2023/07/03 11:01:49;;;;;;;5.82;2.97;;;23.90;99.90;;;;;;5071829;28;20237;-75
2023/07/03 11:04:21;;;;;;;5.38;2.85;;;23.70;99.90;;;;;;5071493;28;20721;-75
2023/07/03 11:06:58;;;;;;;6.95;2.58;;;23.60;99.90;;;;;;5071061;28;20716;-75
2023/07/03 11:09:33;;;;;;;4.43;2.42;;;23.60;99.90;;;;;;5068896;28;20300;-75
2023/07/03 11:12:03;;;;;;;4.97;2.63;;;23.70;99.90;;;;;;5071921;28;20254;-75
2023/07/03 11:14:34;;;;;;;5.75;2.20;;;24.00;99.90;;;;;;5071234;28;20737;-75
2023/07/03 11:17:06;;;;;;;4.53;2.53;;;24.30;99.90;;;;;;5057029;28;20566;-75
2023/07/03 11:19:35;;;;;;;7.38;2.45;;;24.30;99.90;;;;;;5071328;28;20669;-75
2023/07/03 11:22:12;;;;;;;4.60;2.20;;;24.30;99.90;;;;;;5071365;28;20836;-75
2023/07/03 11:24:51;;;;;;;2.90;2.00;;;24.60;99.90;;;;;;5070698;28;20262;-75
2023/07/03 11:27:23;;;;;;;7.38;2.83;;;24.90;99.90;;;;;;5072174;28;20620;-75
2023/07/03 11:29:54;;;;;;;11.05;2.90;;;25.10;99.90;;;;;;5069989;28;20256;-75
2023/07/03 11:32:23;;;;;;;5.30;2.65;;;25.30;99.90;;;;;;5071519;28;20254;-75
2023/07/03 11:34:51;;;;;;;6.72;2.53;;;25.50;99.90;;;;;;5071690;28;20239;-75
2023/07/03 11:37:44;;;;;;;4.57;2.50;;;25.90;99.60;;;;;;5072416;28;20267;-76
2023/07/03 11:40:24;;;;;;;7.97;2.80;;;26.10;98.90;;;;;;5071327;28;20277;-75
2023/07/03 11:42:56;;;;;;;6.95;2.95;;;25.80;98.30;;;;;;5072714;28;20549;-76
2023/07/03 11:45:27;;;;;;;10.13;2.85;;;25.60;97.60;;;;;;5071497;28;20682;-75
2023/07/03 11:47:55;;;;;;;14.52;3.38;;;25.70;97.70;;;;;;5073032;28;20244;-75
2023/07/03 11:50:27;;;;;;;7.97;3.10;;;26.10;98.40;;;;;;5071978;28;20196;-75
2023/07/03 11:52:54;;;;;;;4.18;2.50;;;26.20;96.90;;;;;;5071875;28;20574;-75
2023/07/03 11:55:35;;;;;;;8.85;3.42;;;25.60;97.40;;;;;;5071494;28;20225;-75
2023/07/03 11:58:03;;;;;;;7.28;2.88;;;25.30;97.60;;;;;;5070989;28;20282;-75
2023/07/03 12:00:47;;;;;;;6.63;3.08;;;25.10;96.80;;;;;;5071716;28;20203;-75
2023/07/03 12:03:15;;;;;;;4.53;3.00;;;24.80;97.40;;;;;;5072082;28;20203;-76
2023/07/03 12:05:58;;;;;;;7.25;3.13;;;24.50;98.30;;;;;;5070750;28;20193;-75
2023/07/03 12:08:42;;;;;;;7.63;3.03;;;24.40;98.20;;;;;;5071690;28;20307;-75
2023/07/03 12:11:12;;;;;;;7.97;2.65;;;24.20;97.90;;;;;;5072000;28;20232;-75
2023/07/03 12:13:51;;;;;;;7.53;2.60;;;24.10;98.80;;;;;;5071522;28;20209;-75
2023/07/03 12:16:30;;;;;;;9.02;2.53;;;24.00;98.50;;;;;;5070990;28;20193;-75
2023/07/03 12:19:00;;;;;;;7.80;2.95;;;23.90;98.30;;;;;;5070663;28;20638;-75
2023/07/03 12:21:37;;;;;;;8.68;3.25;;;23.80;98.50;;;;;;5070293;28;20207;-75
2023/07/03 12:24:22;;;;;;;10.52;3.13;;;23.80;98.70;;;;;;5070183;28;20708;-75
2023/07/03 12:26:53;;;;;;;9.00;2.95;;;24.30;98.70;;;;;;5070047;28;20208;-75
2023/07/03 12:29:21;;;;;;;5.45;2.28;;;25.00;98.70;;;;;;5070743;28;20456;-75
2023/07/03 12:31:57;;;;;;;5.03;2.10;;;25.30;95.50;;;;;;5070431;28;20211;-75
2023/07/03 12:34:26;;;;;;;7.03;2.75;;;25.50;94.70;;;;;;5069385;28;20716;-75
2023/07/03 12:36:59;;;;;;;8.15;2.78;;;25.80;94.60;;;;;;5068864;28;20260;-75
2023/07/03 12:39:29;;;;;;;9.63;2.70;;;26.10;94.10;;;;;;5069029;28;20210;-75
2023/07/03 12:42:07;;;;;;;4.30;2.17;;;26.30;94.10;;;;;;5070036;28;20223;-75
2023/07/03 12:44:35;;;;;;;5.10;2.17;;;26.80;93.80;;;;;;5069634;28;20594;-75
2023/07/03 12:47:11;;;;;;;5.20;3.17;;;27.00;92.40;;;;;;5069748;28;20220;-75